Terminal Aerodrome Forecast
Issued by NWS

Home | Current Version | Previous Version | Graphics & Text | Print | Product List | Glossary On
Versions: 1 2 3 4 5 6 7 8 9 10 11 12 13 14 15
000
FTUS45 KGGW 020900 AAA
TAFSDY
TAF AMD
KSDY 020925Z 0209/0306 02008KT 6SM TSRA OVC040CB
     FM021200 05009KT 6SM -SHRA OVC030
     FM030000 01013KT P6SM VCSH BKN023 BKN030
      AMD LTD TO CLD VIS AND WIND=

USA.gov is the U.S. government's official web portal to all federal, state and local government web resources and services.